Current Conditions

Updated: 26-May-2019 11:04 AM  
Summary / Temperature Wind Rain






Feels like: 53°F

1-hour difference
0.2°F 0.2°F colder than last hour.

24-hour difference
25.2°F25.2°F colder than yesterday at this time.

  Today Yesterday
High: 56.4°F
8:39 AM
86.2°F
4:56 PM
Low: 52.2°F
3:45 AM
55.0°F
11:58 PM
Wind from NE NE
0.8
Gust:  0.0 mph
0 Beaufort - Calm

Today: 11.5 - 8:32 AM
Month: 16.0 mph - May 21
Rain Today: 0.08 in
Current Rate (/hr): 0.076 in
Max Rate (/hr):
Rain Yesterday: 0.00 in
Storm Rain: 0.08 in
This Month: 1.08 in
Season Total: 11.40 in
Last Rain Event: Today
Humidity / Barometer Sun / Moon
Humidity: 93 Increased 2.0% in the last hour.
Dew Point: 51.3°F Increased 0.5°F in the last hour.
Barometer: 29.884 inHg  
Baro Trend: Rising slowly
Sunrise: 5:43 AM
Sunset: 8:03 PM
Moonrise: 1:43 AM
Moonset: 12:38 PM
Sky Conditions UV Index
Summary: Overcast
Visibility: 10 miles
Clouds: Mostly cloudy @ 1,300 ft
Mostly cloudy @ 1,700 ft
Overcast @ 2,900 ft
KVIS - 10:56 AM PDT
Current: 3.0  Moderate 
Sunday: 6.9  High 
Monday: 7.3  High 
Air Quality Fire Danger
 Good 
Ozone 35 ppb
PM 2.5 0 μg/m3
11:00 AM PDT
Current: 0  Low 

Local Alerts Local Forecast
Local NWS Alerts
Today

Rain
Showers
High 62
Tonight

Partly
Cloudy
Low 47
Mon

Partly
Cloudy
High 67
Mon night

Mostly
Clear
Low 52
Tue

Mostly
Sunny
High 78
Tue night

Mostly
Clear
Low 56
Wed

Partly
Cloudy
High 85

Local Radar Local Satellite Neighborhood Cam Sky Cam
Local Radar Local Satellite Neighborhood Cam Sky Cam


Nearby Airport Stations

KVIS - Visalia, California, USA
Distance from station: W 14mi, 23km
Updated: Sun, 26-May-2019 10:56am PDT
Light rain, Overcast
Light rain, Overcast
 Wind from S
Wind: S 10 mph , 17 km/h
Temperature: 54°F , 12°C
Dew Point: 52°F , 11°C
Humidity: 94%
Barometer: 29.89 inHg , 1012.2 hPa
Summary: Light rain
Clouds: Overcast
Visibility: 10 miles , 16 km
Cloud details: Mostly cloudy 1300 ft
Mostly cloudy 1700 ft
Overcast 2900 ft
2019/05/26 17:56 KVIS 261756Z AUTO 18009KT 10SM -RA BKN013 BKN017 OVC029 12/11 A2989 RMK AO2 SLP131 P0000 60000 T01220106 10128 20111 53012
KPTV - Porterville, California, USA
Distance from station: SSE 19mi, 31km
Updated: Sun, 26-May-2019 10:56am PDT
Light rain, Mist, Overcast
Light rain, Mist, Overcast
 Wind from S
Wind: S 5 mph , 7 km/h
Temperature: 54°F , 12°C
Dew Point: 52°F , 11°C
Humidity: 94%
Barometer: 29.91 inHg , 1012.9 hPa
Summary: Light rain, Mist
Clouds: Overcast
Visibility: 6 miles , 10 km
Cloud details: Partly cloudy 600 ft
Mostly cloudy 1000 ft
Overcast 2700 ft
2019/05/26 17:56 KPTV 261756Z AUTO 19004KT 6SM -RA BR SCT006 BKN010 OVC027 12/11 A2991 RMK AO2 CIG 008V013 SLP142 P0002 60002 T01170106 10133 20106 53007

Metar display script from Saratoga-Weather.org



Visitor Map